Time;durP1;ratioP1;P1;durP2;ratioP2;P2;SDS_P1;SDS_P2;PMS_P1;PMS_P2;Temp;Humidity;BMP_temperature;BMP_pressure;BME280_temperature;BME280_humidity;BME280_pressure;Samples;Min_cycle;Max_cycle;Signal;HPM_P1;HPM_P2
2023/02/05 00:01:14;;;;;;;5.82;1.88;;;;;;;;;;4974237;28;20035;-71
2023/02/05 00:03:41;;;;;;;5.03;1.55;;;;;;;;;;4974244;28;20344;-70
2023/02/05 00:06:07;;;;;;;3.35;1.15;;;;;;;;;;4974401;28;20440;-70
2023/02/05 00:08:33;;;;;;;3.67;1.40;;;;;;;;;;4973442;28;20113;-69
2023/02/05 00:11:07;;;;;;;1.73;1.40;;;;;;;;;;4973080;28;20114;-70
2023/02/05 00:13:34;;;;;;;4.93;1.60;;;;;;;;;;4974343;28;20027;-71
2023/02/05 00:16:00;;;;;;;4.80;1.95;;;;;;;;;;4967143;28;20031;-70
2023/02/05 00:18:26;;;;;;;2.92;1.50;;;;;;;;;;4968751;28;20038;-70
2023/02/05 00:20:52;;;;;;;3.97;1.77;;;;;;;;;;4974054;28;20481;-69
2023/02/05 00:23:18;;;;;;;4.50;1.73;;;;;;;;;;4973072;28;20027;-69
2023/02/05 00:25:44;;;;;;;3.70;2.22;;;;;;;;;;4974450;28;20078;-71
2023/02/05 00:28:09;;;;;;;2.88;1.67;;;;;;;;;;4972192;28;20037;-70
2023/02/05 00:30:35;;;;;;;4.32;1.95;;;;;;;;;;4973757;28;20037;-69
2023/02/05 00:33:01;;;;;;;4.78;2.22;;;;;;;;;;4972695;28;20077;-70
2023/02/05 00:35:27;;;;;;;3.15;1.83;;;;;;;;;;5005637;22;20030;-70
2023/02/05 00:37:55;;;;;;;4.68;2.10;;;;;;;;;;4972908;28;20042;-70
2023/02/05 00:40:21;;;;;;;6.38;2.22;;;;;;;;;;4981291;28;20442;-71
2023/02/05 00:42:47;;;;;;;2.65;2.17;;;;;;;;;;4974276;28;20417;-69
2023/02/05 00:45:15;;;;;;;5.72;2.25;;;;;;;;;;4973665;28;20362;-69
2023/02/05 00:47:41;;;;;;;6.85;2.35;;;;;;;;;;4971386;28;20023;-71
2023/02/05 00:50:07;;;;;;;4.15;2.00;;;;;;;;;;4973908;28;20401;-70
2023/02/05 00:52:33;;;;;;;6.28;2.17;;;;;;;;;;4973199;28;20034;-70
2023/02/05 00:54:59;;;;;;;4.60;2.30;;;;;;;;;;4974348;28;20026;-71
2023/02/05 00:57:25;;;;;;;4.43;2.00;;;;;;;;;;4972047;28;20143;-69
2023/02/05 00:59:52;;;;;;;3.83;2.15;;;;;;;;;;4973827;28;20311;-69
2023/02/05 01:02:22;;;;;;;3.20;1.80;;;;;;;;;;4974010;28;20050;-70
2023/02/05 01:04:52;;;;;;;4.70;2.30;;;;;;;;;;4972523;28;20121;-69
2023/02/05 01:07:19;;;;;;;4.40;2.33;;;;;;;;;;4972614;28;20022;-70
2023/02/05 01:09:45;;;;;;;5.53;1.98;;;;;;;;;;4971485;28;20048;-71
2023/02/05 01:12:13;;;;;;;4.07;1.98;;;;;;;;;;4973140;28;20026;-70
2023/02/05 01:14:39;;;;;;;3.80;2.05;;;;;;;;;;4973044;28;20035;-70
2023/02/05 01:17:05;;;;;;;4.28;2.38;;;;;;;;;;4970904;28;20031;-69
2023/02/05 01:19:33;;;;;;;6.68;2.50;;;;;;;;;;4970882;28;20082;-71
2023/02/05 01:21:59;;;;;;;6.53;2.90;;;;;;;;;;4973179;28;20035;-71
2023/02/05 01:24:25;;;;;;;3.50;2.05;;;;;;;;;;4973295;28;20062;-70
2023/02/05 01:26:52;;;;;;;8.07;3.25;;;;;;;;;;4973259;28;20027;-70
2023/02/05 01:29:18;;;;;;;5.40;2.22;;;;;;;;;;4972805;28;20050;-71
2023/02/05 01:31:44;;;;;;;2.63;2.08;;;;;;;;;;4972687;28;20113;-70
2023/02/05 01:34:10;;;;;;;3.97;2.33;;;;;;;;;;4971499;28;20453;-71
2023/02/05 01:36:36;;;;;;;4.82;2.65;;;;;;;;;;4971273;28;20115;-71
2023/02/05 01:39:02;;;;;;;7.38;2.80;;;;;;;;;;4970661;28;20071;-70
2023/02/05 01:41:28;;;;;;;5.25;2.90;;;;;;;;;;4972571;28;20158;-70
2023/02/05 01:44:05;;;;;;;4.38;2.40;;;;;;;;;;4972561;28;20487;-70
2023/02/05 01:46:31;;;;;;;4.57;2.78;;;;;;;;;;4971049;28;20382;-71
2023/02/05 01:48:58;;;;;;;7.15;3.08;;;;;;;;;;4971778;28;20033;-70
2023/02/05 01:51:26;;;;;;;6.30;3.10;;;;;;;;;;4972522;28;20023;-70
2023/02/05 01:53:52;;;;;;;6.50;3.17;;;;;;;;;;4972679;28;20043;-71
2023/02/05 01:56:21;;;;;;;7.55;3.03;;;;;;;;;;4972228;28;20110;-71
2023/02/05 01:58:58;;;;;;;5.18;3.10;;;;;;;;;;4971252;28;20038;-70
2023/02/05 02:01:24;;;;;;;6.15;3.20;;;;;;;;;;4956196;28;20121;-71
2023/02/05 02:03:51;;;;;;;5.28;3.03;;;;;;;;;;4970893;28;20113;-70
2023/02/05 02:06:17;;;;;;;7.00;2.75;;;;;;;;;;4972255;28;20027;-70
2023/02/05 02:08:43;;;;;;;8.90;3.47;;;;;;;;;;4971295;28;20366;-70
2023/02/05 02:11:10;;;;;;;7.38;3.53;;;;;;;;;;4970719;28;20082;-69
2023/02/05 02:13:36;;;;;;;5.50;3.17;;;;;;;;;;4970561;28;20039;-70
2023/02/05 02:16:04;;;;;;;6.20;3.10;;;;;;;;;;4971972;28;20035;-69
2023/02/05 02:18:30;;;;;;;5.03;3.05;;;;;;;;;;4971390;28;20038;-69
2023/02/05 02:20:56;;;;;;;8.30;3.15;;;;;;;;;;4971833;28;20038;-69
2023/02/05 02:23:25;;;;;;;5.82;3.10;;;;;;;;;;4971893;28;20027;-69
2023/02/05 02:26:01;;;;;;;7.82;2.80;;;;;;;;;;4971424;28;20308;-68
2023/02/05 02:28:27;;;;;;;4.70;3.05;;;;;;;;;;4971117;28;20031;-69
2023/02/05 02:30:53;;;;;;;5.53;3.13;;;;;;;;;;4970994;28;20429;-69
2023/02/05 02:33:27;;;;;;;7.32;3.13;;;;;;;;;;4971698;28;20105;-69
2023/02/05 02:35:58;;;;;;;9.00;3.83;;;;;;;;;;4971413;28;20498;-69
2023/02/05 02:38:29;;;;;;;4.65;2.83;;;;;;;;;;4971081;28;20034;-68
2023/02/05 02:41:01;;;;;;;6.28;3.30;;;;;;;;;;4971628;28;20026;-69
2023/02/05 02:43:31;;;;;;;5.13;2.88;;;;;;;;;;4971780;28;20023;-69
2023/02/05 02:46:07;;;;;;;6.05;2.97;;;;;;;;;;4970450;28;20033;-69
2023/02/05 02:48:38;;;;;;;6.47;3.35;;;;;;;;;;4971313;28;20030;-69
2023/02/05 02:51:06;;;;;;;7.00;3.65;;;;;;;;;;4970327;28;20027;-70
2023/02/05 02:53:37;;;;;;;8.95;3.28;;;;;;;;;;4971978;28;20035;-70
2023/02/05 02:56:03;;;;;;;;;;;;;;;;;;4972280;28;20038;-69
2023/02/05 02:58:32;;;;;;;8.43;3.85;;;;;;;;;;4971023;28;19906;-70
2023/02/05 03:01:01;;;;;;;7.25;3.75;;;;;;;;;;4971472;28;20027;-70
2023/02/05 03:03:29;;;;;;;7.13;3.63;;;;;;;;;;4971739;28;20022;-70
2023/02/05 03:05:56;;;;;;;6.45;3.35;;;;;;;;;;4971487;28;20027;-70
2023/02/05 03:08:24;;;;;;;4.38;2.95;;;;;;;;;;4970842;28;20042;-70
2023/02/05 03:10:55;;;;;;;9.48;3.58;;;;;;;;;;4970296;28;20034;-68
2023/02/05 03:13:21;;;;;;;7.68;3.10;;;;;;;;;;4956331;28;20425;-69
2023/02/05 03:15:47;;;;;;;7.60;3.22;;;;;;;;;;4969911;28;20042;-69
2023/02/05 03:18:14;;;;;;;8.23;3.45;;;;;;;;;;4970871;28;20139;-70
2023/02/05 03:20:50;;;;;;;7.05;3.05;;;;;;;;;;4971603;28;20027;-69
2023/02/05 03:23:16;;;;;;;7.65;2.78;;;;;;;;;;4990954;28;20052;-70
2023/02/05 03:25:42;;;;;;;9.75;3.30;;;;;;;;;;4990563;28;20033;-69
2023/02/05 03:28:08;;;;;;;7.70;3.60;;;;;;;;;;4988846;28;20396;-69
2023/02/05 03:31:00;;;;;;;7.70;3.65;;;;;;;;;;4991176;28;20026;-69
2023/02/05 03:33:32;;;;;;;11.75;4.22;;;;;;;;;;4987310;28;20477;-70
2023/02/05 03:36:04;;;;;;;6.90;3.00;;;;;;;;;;4970576;28;20039;-69
2023/02/05 03:38:39;;;;;;;9.35;3.83;;;;;;;;;;4971648;28;20080;-70
2023/02/05 03:41:17;;;;;;;6.93;3.50;;;;;;;;;;4971377;28;20071;-69
2023/02/05 03:43:46;;;;;;;6.80;3.60;;;;;;;;;;4973402;28;20135;-69
2023/02/05 03:46:35;;;;;;;6.03;3.22;;;;;;;;;;4974886;28;20109;-69
2023/02/05 03:49:13;;;;;;;8.30;3.65;;;;;;;;;;4974281;28;20034;-69
2023/02/05 03:51:45;;;;;;;5.90;3.75;;;;;;;;;;4974862;28;20033;-70
2023/02/05 03:54:22;;;;;;;8.15;2.97;;;;;;;;;;4974853;28;20118;-70
2023/02/05 03:56:57;;;;;;;7.65;3.25;;;;;;;;;;4974320;28;20401;-69
2023/02/05 03:59:23;;;;;;;4.05;2.92;;;;;;;;;;4974067;28;20062;-70
2023/02/05 04:01:50;;;;;;;8.98;3.92;;;;;;;;;;4974015;28;20396;-70
2023/02/05 04:04:16;;;;;;;7.82;4.25;;;;;;;;;;4973315;28;20046;-70
2023/02/05 04:06:42;;;;;;;9.15;4.03;;;;;;;;;;4974371;28;20374;-70
2023/02/05 04:09:10;;;;;;;8.15;4.55;;;;;;;;;;4973776;28;20031;-70
2023/02/05 04:11:37;;;;;;;7.65;4.05;;;;;;;;;;4974406;28;20031;-70
2023/02/05 04:14:03;;;;;;;9.82;5.05;;;;;;;;;;4974562;28;20034;-70
2023/02/05 04:16:29;;;;;;;8.00;3.97;;;;;;;;;;4974565;28;20038;-68
2023/02/05 04:18:55;;;;;;;8.45;3.95;;;;;;;;;;4972120;28;20113;-70
2023/02/05 04:21:21;;;;;;;7.25;3.35;;;;;;;;;;4974097;28;20019;-70
2023/02/05 04:23:47;;;;;;;9.52;4.10;;;;;;;;;;4973742;28;20027;-70
2023/02/05 04:26:13;;;;;;;7.22;4.30;;;;;;;;;;4972799;28;20081;-70
2023/02/05 04:28:39;;;;;;;7.63;4.13;;;;;;;;;;4973343;28;20041;-70
2023/02/05 04:31:10;;;;;;;9.20;4.22;;;;;;;;;;4973822;28;20030;-70
2023/02/05 04:33:36;;;;;;;7.97;4.22;;;;;;;;;;4973323;28;20073;-70
2023/02/05 04:36:02;;;;;;;8.60;4.25;;;;;;;;;;4973719;28;20038;-70
2023/02/05 04:38:28;;;;;;;11.10;4.22;;;;;;;;;;4973016;28;20027;-68
2023/02/05 04:40:54;;;;;;;7.43;4.07;;;;;;;;;;4973630;28;20026;-70
2023/02/05 04:43:20;;;;;;;8.88;4.22;;;;;;;;;;4973426;28;20023;-69
2023/02/05 04:45:46;;;;;;;8.50;4.28;;;;;;;;;;4973391;28;20085;-69
2023/02/05 04:48:12;;;;;;;9.65;4.47;;;;;;;;;;4972744;28;20035;-69
2023/02/05 04:50:38;;;;;;;11.55;4.20;;;;;;;;;;4973815;28;20027;-69
2023/02/05 04:53:04;;;;;;;9.93;3.70;;;;;;;;;;4972611;28;20485;-69
2023/02/05 04:55:31;;;;;;;8.00;3.80;;;;;;;;;;4971969;28;20018;-69
2023/02/05 04:57:57;;;;;;;5.82;3.33;;;;;;;;;;4972474;28;20023;-70
2023/02/05 05:00:24;;;;;;;6.00;3.08;;;;;;;;;;4973397;28;20030;-69
2023/02/05 05:02:50;;;;;;;11.30;3.65;;;;;;;;;;4973190;28;20070;-72
2023/02/05 05:05:16;;;;;;;12.70;5.50;;;;;;;;;;4973578;28;20065;-69
2023/02/05 05:07:42;;;;;;;6.40;3.58;;;;;;;;;;4971009;28;20065;-69
2023/02/05 05:10:08;;;;;;;11.27;4.15;;;;;;;;;;4973231;28;20050;-69
2023/02/05 05:12:35;;;;;;;6.15;4.00;;;;;;;;;;4973043;28;20085;-69
2023/02/05 05:15:01;;;;;;;9.38;4.90;;;;;;;;;;4973332;28;20037;-68
2023/02/05 05:17:27;;;;;;;6.78;4.07;;;;;;;;;;4972365;28;20466;-69
2023/02/05 05:19:53;;;;;;;7.43;4.22;;;;;;;;;;4972745;28;20046;-69
2023/02/05 05:22:19;;;;;;;10.88;5.35;;;;;;;;;;4973287;28;20393;-69
2023/02/05 05:24:45;;;;;;;8.65;4.40;;;;;;;;;;4972815;28;20027;-69
2023/02/05 05:27:11;;;;;;;8.18;4.20;;;;;;;;;;4971912;28;20031;-69
2023/02/05 05:29:37;;;;;;;7.70;4.63;;;;;;;;;;4972594;28;20027;-69
2023/02/05 05:32:03;;;;;;;7.80;4.28;;;;;;;;;;4971518;28;20075;-70
2023/02/05 05:34:29;;;;;;;6.18;4.07;;;;;;;;;;4972711;28;20086;-69
2023/02/05 05:36:55;;;;;;;7.65;4.80;;;;;;;;;;4972424;28;20034;-69
2023/02/05 05:44:51;;;;;;;7.40;3.90;;;;;;;;;;4972654;28;20089;-70
2023/02/05 05:47:20;;;;;;;8.10;3.35;;;;;;;;;;4970149;28;20469;-70
2023/02/05 05:49:46;;;;;;;8.57;4.25;;;;;;;;;;4972160;28;20027;-70
2023/02/05 05:52:12;;;;;;;6.72;4.03;;;;;;;;;;4972228;28;20049;-70
2023/02/05 05:54:38;;;;;;;7.93;4.13;;;;;;;;;;4972711;28;20053;-69
2023/02/05 05:57:05;;;;;;;7.18;3.80;;;;;;;;;;4971655;28;20041;-68
2023/02/05 05:59:31;;;;;;;7.68;3.40;;;;;;;;;;4972170;28;20030;-69
2023/02/05 06:01:57;;;;;;;5.95;3.72;;;;;;;;;;4972004;28;20045;-70
2023/02/05 06:04:23;;;;;;;6.97;3.47;;;;;;;;;;4972007;28;20026;-70
2023/02/05 06:06:49;;;;;;;9.57;3.85;;;;;;;;;;4971976;28;20078;-70
2023/02/05 06:09:15;;;;;;;6.95;3.70;;;;;;;;;;4971483;28;20027;-70
2023/02/05 06:11:41;;;;;;;7.82;4.18;;;;;;;;;;4972079;28;20067;-71
2023/02/05 06:14:07;;;;;;;7.45;3.53;;;;;;;;;;4972326;28;20031;-69
2023/02/05 06:16:33;;;;;;;5.60;3.30;;;;;;;;;;4972169;28;20041;-70
2023/02/05 06:19:01;;;;;;;6.55;4.18;;;;;;;;;;4971154;28;20478;-69
2023/02/05 06:21:27;;;;;;;9.32;3.92;;;;;;;;;;4971796;28;20027;-70
2023/02/05 06:23:53;;;;;;;7.70;4.35;;;;;;;;;;4968577;28;20031;-70
2023/02/05 06:26:19;;;;;;;8.55;3.80;;;;;;;;;;4964486;28;20488;-69
2023/02/05 06:28:45;;;;;;;9.30;3.08;;;;;;;;;;4961629;28;20053;-69
2023/02/05 06:31:11;;;;;;;7.53;3.38;;;;;;;;;;4968169;28;20026;-70
2023/02/05 06:33:37;;;;;;;7.60;3.33;;;;;;;;;;4980231;28;20033;-69
2023/02/05 06:36:04;;;;;;;5.55;3.30;;;;;;;;;;4987451;22;20034;-69
2023/02/05 06:38:29;;;;;;;6.43;3.15;;;;;;;;;;4990752;28;20115;-70
2023/02/05 06:40:55;;;;;;;7.40;3.53;;;;;;;;;;4991590;28;20050;-72
2023/02/05 06:43:21;;;;;;;5.68;3.20;;;;;;;;;;4991544;28;20455;-71
2023/02/05 06:45:50;;;;;;;5.80;3.28;;;;;;;;;;4991597;28;20018;-71
2023/02/05 06:48:17;;;;;;;6.90;3.42;;;;;;;;;;4971431;28;20517;-70
2023/02/05 06:50:43;;;;;;;6.47;3.65;;;;;;;;;;4972315;28;20042;-70
2023/02/05 06:53:09;;;;;;;8.63;4.05;;;;;;;;;;4972290;28;20394;-71
2023/02/05 06:55:37;;;;;;;10.30;4.50;;;;;;;;;;4972101;28;20050;-70
2023/02/05 06:58:03;;;;;;;7.50;4.72;;;;;;;;;;4971264;28;20216;-70
2023/02/05 07:00:29;;;;;;;8.30;4.50;;;;;;;;;;4971908;28;20354;-70
2023/02/05 07:03:01;;;;;;;8.82;5.35;;;;;;;;;;4971988;28;20034;-71
2023/02/05 07:05:29;;;;;;;8.93;5.07;;;;;;;;;;4970680;28;20022;-72
2023/02/05 07:07:55;;;;;;;8.88;4.20;;;;;;;;;;4971362;28;20031;-70
2023/02/05 07:10:21;;;;;;;8.75;4.50;;;;;;;;;;4972375;28;20425;-71
2023/02/05 07:12:47;;;;;;;10.65;4.35;;;;;;;;;;4971960;28;20046;-71
2023/02/05 07:15:14;;;;;;;10.55;4.85;;;;;;;;;;4971867;28;20034;-71
2023/02/05 07:17:40;;;;;;;4.88;3.10;;;;;;;;;;4972904;28;20404;-70
2023/02/05 07:20:06;;;;;;;5.85;3.55;;;;;;;;;;4975732;28;20027;-70
2023/02/05 07:22:32;;;;;;;5.60;3.50;;;;;;;;;;4974155;28;20026;-71
2023/02/05 07:24:58;;;;;;;5.78;3.38;;;;;;;;;;4975353;28;20023;-70
2023/02/05 07:27:24;;;;;;;5.72;3.30;;;;;;;;;;4973657;28;20022;-72
2023/02/05 07:29:50;;;;;;;8.93;4.47;;;;;;;;;;4973813;28;20277;-71
2023/02/05 07:32:16;;;;;;;9.30;4.65;;;;;;;;;;4972898;28;20027;-71
2023/02/05 07:34:42;;;;;;;6.30;3.92;;;;;;;;;;4973233;28;20089;-71
2023/02/05 07:37:10;;;;;;;8.50;3.65;;;;;;;;;;4973989;28;20035;-68
2023/02/05 07:39:36;;;;;;;4.88;3.30;;;;;;;;;;4970894;28;20057;-69
2023/02/05 07:42:02;;;;;;;5.97;3.70;;;;;;;;;;4973293;28;20055;-71
2023/02/05 07:44:28;;;;;;;6.50;3.35;;;;;;;;;;4974610;28;20106;-70
2023/02/05 07:46:57;;;;;;;4.93;3.55;;;;;;;;;;4974476;28;20452;-68
2023/02/05 07:49:23;;;;;;;7.90;3.58;;;;;;;;;;4974898;28;20038;-70
2023/02/05 07:51:49;;;;;;;5.72;3.97;;;;;;;;;;4974999;28;20098;-68
2023/02/05 07:54:15;;;;;;;6.63;3.85;;;;;;;;;;4974937;28;20111;-71
2023/02/05 07:56:41;;;;;;;7.15;3.50;;;;;;;;;;4981397;28;20031;-71
2023/02/05 07:59:08;;;;;;;6.45;3.42;;;;;;;;;;4981726;28;20103;-71
2023/02/05 08:01:34;;;;;;;5.28;3.13;;;;;;;;;;4982980;28;20058;-69
2023/02/05 08:04:00;;;;;;;6.43;3.67;;;;;;;;;;4978766;28;20015;-69
2023/02/05 08:06:26;;;;;;;6.38;4.13;;;;;;;;;;4973949;28;20022;-69
2023/02/05 08:08:52;;;;;;;6.85;4.10;;;;;;;;;;4973163;28;20156;-69
2023/02/05 08:11:19;;;;;;;6.72;3.63;;;;;;;;;;4974924;28;20026;-70
2023/02/05 08:13:45;;;;;;;5.30;3.45;;;;;;;;;;4974762;28;20230;-69
2023/02/05 08:16:14;;;;;;;6.07;3.30;;;;;;;;;;4974492;28;20512;-69
2023/02/05 08:18:40;;;;;;;4.30;3.10;;;;;;;;;;4973901;28;20106;-69
2023/02/05 08:21:06;;;;;;;6.90;3.55;;;;;;;;;;4974502;28;20142;-70
2023/02/05 08:23:32;;;;;;;5.57;3.38;;;;;;;;;;4974221;28;20070;-69
2023/02/05 08:25:59;;;;;;;8.07;3.67;;;;;;;;;;4974396;28;20033;-69
2023/02/05 08:28:25;;;;;;;16.45;4.38;;;;;;;;;;4973560;28;20019;-68
2023/02/05 08:30:52;;;;;;;6.93;3.72;;;;;;;;;;4974101;28;20393;-69
2023/02/05 08:33:18;;;;;;;8.43;3.30;;;;;;;;;;4974283;28;20393;-71
2023/02/05 08:35:44;;;;;;;5.28;4.15;;;;;;;;;;4973898;28;20030;-71
2023/02/05 08:38:10;;;;;;;5.22;3.47;;;;;;;;;;4975552;28;20053;-68
2023/02/05 08:40:36;;;;;;;4.97;2.88;;;;;;;;;;4979630;28;20477;-70
2023/02/05 08:43:02;;;;;;;5.50;2.78;;;;;;;;;;4979697;28;20032;-69
2023/02/05 08:45:29;;;;;;;4.43;2.67;;;;;;;;;;4979095;28;20525;-68
2023/02/05 08:47:55;;;;;;;8.23;3.20;;;;;;;;;;4980045;28;20389;-70
2023/02/05 08:50:22;;;;;;;5.88;3.15;;;;;;;;;;4982001;28;20041;-70
2023/02/05 08:52:48;;;;;;;6.90;3.55;;;;;;;;;;4974848;28;20034;-69
2023/02/05 08:55:17;;;;;;;4.65;2.60;;;;;;;;;;4972717;28;20415;-70
2023/02/05 08:57:43;;;;;;;4.53;2.50;;;;;;;;;;4969562;28;20336;-70
2023/02/05 09:00:09;;;;;;;5.15;2.55;;;;;;;;;;4972247;28;20110;-70
2023/02/05 09:02:35;;;;;;;5.90;2.70;;;;;;;;;;4972068;28;20547;-70
2023/02/05 09:05:01;;;;;;;4.53;3.20;;;;;;;;;;4973413;28;20117;-70
2023/02/05 09:07:27;;;;;;;4.90;3.35;;;;;;;;;;4972107;28;20482;-69
2023/02/05 09:09:53;;;;;;;6.78;2.60;;;;;;;;;;4971869;28;20046;-70
2023/02/05 09:12:19;;;;;;;5.50;2.40;;;;;;;;;;4971492;28;20031;-70
2023/02/05 09:14:45;;;;;;;2.80;2.25;;;;;;;;;;4971198;28;20034;-70
2023/02/05 09:17:13;;;;;;;4.35;2.17;;;;;;;;;;4969158;28;20039;-68
2023/02/05 09:19:39;;;;;;;3.70;2.30;;;;;;;;;;4972348;28;20027;-70
2023/02/05 09:22:06;;;;;;;4.22;2.13;;;;;;;;;;4972799;28;20113;-70
2023/02/05 09:24:33;;;;;;;5.00;2.85;;;;;;;;;;4971195;28;20031;-69
2023/02/05 09:26:59;;;;;;;3.75;2.20;;;;;;;;;;4972009;28;20054;-69
2023/02/05 09:29:25;;;;;;;4.60;2.40;;;;;;;;;;4971884;28;20034;-70
2023/02/05 09:31:51;;;;;;;8.13;2.47;;;;;;;;;;4972578;28;20031;-70
2023/02/05 09:34:17;;;;;;;4.97;2.42;;;;;;;;;;4972365;28;20441;-70
2023/02/05 09:36:43;;;;;;;7.85;2.50;;;;;;;;;;4972263;28;20617;-70
2023/02/05 09:39:10;;;;;;;3.90;2.33;;;;;;;;;;4977008;28;20137;-71
2023/02/05 09:41:41;;;;;;;5.18;2.33;;;;;;;;;;4971706;28;20035;-71
2023/02/05 09:44:07;;;;;;;;;;;;;;;;;;4972896;28;20077;-70
2023/02/05 09:46:33;;;;;;;3.55;2.17;;;;;;;;;;4972033;28;19914;-71
2023/02/05 09:49:11;;;;;;;4.57;2.45;;;;;;;;;;4971011;28;20389;-71
2023/02/05 09:51:40;;;;;;;4.15;2.25;;;;;;;;;;4971884;28;20027;-70
2023/02/05 09:54:26;;;;;;;5.22;2.42;;;;;;;;;;4977265;28;20089;-70
2023/02/05 09:56:54;;;;;;;4.85;2.22;;;;;;;;;;4969202;28;20042;-72
2023/02/05 09:59:21;;;;;;;6.78;2.72;;;;;;;;;;4970006;28;20490;-70
2023/02/05 10:01:50;;;;;;;9.32;2.70;;;;;;;;;;4972102;28;20121;-70
2023/02/05 10:04:17;;;;;;;5.95;2.55;;;;;;;;;;4972485;28;20543;-71
2023/02/05 10:06:46;;;;;;;4.93;2.22;;;;;;;;;;4972483;28;20031;-70
2023/02/05 10:09:38;;;;;;;3.97;2.08;;;;;;;;;;4971962;28;20019;-70
2023/02/05 10:12:10;;;;;;;3.65;2.25;;;;;;;;;;4949995;28;20416;-71
2023/02/05 10:14:42;;;;;;;6.00;1.95;;;;;;;;;;4971316;28;20031;-70
2023/02/05 10:17:28;;;;;;;4.32;2.03;;;;;;;;;;4970454;28;20553;-71
2023/02/05 10:20:00;;;;;;;3.42;2.13;;;;;;;;;;4971797;28;20035;-70
2023/02/05 10:22:38;;;;;;;4.78;2.13;;;;;;;;;;4971543;28;20041;-68
2023/02/05 10:25:19;;;;;;;3.65;2.10;;;;;;;;;;4966443;28;20398;-68
2023/02/05 10:27:45;;;;;;;;;;;;;;;;;;4963569;28;20038;-72
2023/02/05 10:30:14;;;;;;;5.13;2.38;;;;;;;;;;4970472;28;19906;-71
2023/02/05 10:32:51;;;;;;;5.32;2.17;;;;;;;;;;4970485;28;20081;-70
2023/02/05 10:35:20;;;;;;;7.70;2.70;;;;;;;;;;4970296;28;20019;-71
2023/02/05 10:37:56;;;;;;;5.63;2.88;;;;;;;;;;4969194;28;20039;-72
2023/02/05 10:40:30;;;;;;;4.25;2.33;;;;;;;;;;4972219;28;20023;-72
2023/02/05 10:43:23;;;;;;;4.15;1.83;;;;;;;;;;4972324;28;20031;-70
2023/02/05 10:45:51;;;;;;;4.07;1.70;;;;;;;;;;4969684;28;20027;-71
2023/02/05 10:48:35;;;;;;;3.33;1.98;;;;;;;;;;4971151;28;20034;-71
2023/02/05 10:51:06;;;;;;;6.47;2.30;;;;;;;;;;4971817;28;20045;-70
2023/02/05 10:53:32;;;;;;;4.30;2.00;;;;;;;;;;4975643;28;20019;-71
2023/02/05 10:55:59;;;;;;;9.50;2.40;;;;;;;;;;4976092;28;20105;-72
2023/02/05 10:58:34;;;;;;;5.03;2.10;;;;;;;;;;4974034;28;20362;-71
2023/02/05 11:01:01;;;;;;;4.72;2.30;;;;;;;;;;4976030;28;20093;-71
2023/02/05 11:03:27;;;;;;;3.28;1.88;;;;;;;;;;4975707;28;20023;-72
2023/02/05 11:05:53;;;;;;;4.57;2.65;;;;;;;;;;4975663;28;20027;-72
2023/02/05 11:08:33;;;;;;;3.28;1.85;;;;;;;;;;4975231;28;20058;-71
2023/02/05 11:10:59;;;;;;;4.05;2.30;;;;;;;;;;4975243;28;20034;-71
2023/02/05 11:13:26;;;;;;;4.00;2.20;;;;;;;;;;4975385;28;20019;-71
2023/02/05 11:16:09;;;;;;;3.22;2.10;;;;;;;;;;4975552;28;20026;-72
2023/02/05 11:18:38;;;;;;;5.95;2.10;;;;;;;;;;4974741;28;20509;-70
2023/02/05 11:21:05;;;;;;;3.92;1.65;;;;;;;;;;4975074;28;20042;-72
2023/02/05 11:23:37;;;;;;;4.20;1.80;;;;;;;;;;4975253;28;20027;-71
2023/02/05 11:26:17;;;;;;;3.67;2.00;;;;;;;;;;4974303;28;20089;-71
2023/02/05 11:28:43;;;;;;;5.28;2.10;;;;;;;;;;4974736;28;20489;-70
2023/02/05 11:31:25;;;;;;;7.63;2.40;;;;;;;;;;4975283;28;20125;-70
2023/02/05 11:33:51;;;;;;;2.60;1.85;;;;;;;;;;4975053;28;20026;-71
2023/02/05 11:36:19;;;;;;;4.82;1.75;;;;;;;;;;4973656;28;20093;-70
2023/02/05 11:38:46;;;;;;;5.35;2.78;;;;;;;;;;4974640;28;20105;-71
2023/02/05 11:41:14;;;;;;;6.07;2.15;;;;;;;;;;4975229;28;20039;-71
2023/02/05 11:43:47;;;;;;;7.82;2.40;;;;;;;;;;4974932;28;20030;-71
2023/02/05 11:46:18;;;;;;;6.00;2.00;;;;;;;;;;4974894;28;20042;-71
2023/02/05 11:48:49;;;;;;;3.90;2.10;;;;;;;;;;4974268;28;20457;-71
2023/02/05 11:51:15;;;;;;;5.25;2.40;;;;;;;;;;4974857;28;20413;-70
2023/02/05 11:53:53;;;;;;;6.43;2.33;;;;;;;;;;4974762;28;20485;-71
2023/02/05 11:56:21;;;;;;;4.97;2.20;;;;;;;;;;4974959;28;20073;-72
2023/02/05 11:58:57;;;;;;;3.67;2.33;;;;;;;;;;4972802;28;20311;-70
2023/02/05 12:01:24;;;;;;;3.58;2.20;;;;;;;;;;4959963;28;20482;-71
2023/02/05 12:03:58;;;;;;;3.20;1.67;;;;;;;;;;4974713;28;20050;-71
2023/02/05 12:06:27;;;;;;;5.13;2.25;;;;;;;;;;4974585;28;20102;-72
2023/02/05 12:08:54;;;;;;;3.33;1.85;;;;;;;;;;4974227;28;20050;-72
2023/02/05 12:14:43;;;;;;;6.72;2.75;;;;;;;;;;4974751;28;20057;-71
2023/02/05 12:17:24;;;;;;;5.57;2.22;;;;;;;;;;4973801;28;20477;-71
2023/02/05 12:19:50;;;;;;;;;;;;;;;;;;4973406;28;20031;-72
2023/02/05 12:22:23;;;;;;;4.63;1.67;;;;;;;;;;4974438;28;19989;-72
2023/02/05 12:24:58;;;;;;;4.43;2.00;;;;;;;;;;4971414;28;20369;-71
2023/02/05 12:27:24;;;;;;;4.65;1.98;;;;;;;;;;4966893;28;20113;-70
2023/02/05 12:29:59;;;;;;;2.53;1.80;;;;;;;;;;4965595;28;20393;-70
2023/02/05 12:32:26;;;;;;;4.55;2.40;;;;;;;;;;4974199;28;20027;-70
2023/02/05 12:35:15;;;;;;;4.75;2.20;;;;;;;;;;4974159;28;20382;-72
2023/02/05 12:37:41;;;;;;;4.10;2.20;;;;;;;;;;4999218;23;20053;-69
2023/02/05 12:40:07;;;;;;;4.72;2.20;;;;;;;;;;4994380;28;20413;-71
2023/02/05 12:42:33;;;;;;;3.22;1.92;;;;;;;;;;4992403;28;20081;-70
2023/02/05 12:45:08;;;;;;;4.53;2.10;;;;;;;;;;4991641;28;20034;-72
2023/02/05 12:47:43;;;;;;;4.82;1.60;;;;;;;;;;4992128;28;20049;-69
2023/02/05 12:50:09;;;;;;;5.90;1.60;;;;;;;;;;4993637;28;20054;-72
2023/02/05 12:52:44;;;;;;;4.10;1.75;;;;;;;;;;4991742;28;20390;-71
2023/02/05 12:55:29;;;;;;;2.47;1.23;;;;;;;;;;4992424;28;20105;-71
2023/02/05 12:58:00;;;;;;;6.35;1.33;;;;;;;;;;4989298;28;20460;-71
2023/02/05 13:00:48;;;;;;;2.83;1.00;;;;;;;;;;4992604;28;20026;-71
2023/02/05 13:03:21;;;;;;;1.55;1.10;;;;;;;;;;4992910;28;20306;-70
2023/02/05 13:05:52;;;;;;;2.55;0.90;;;;;;;;;;4990059;28;20034;-71
2023/02/05 13:08:18;;;;;;;3.55;1.25;;;;;;;;;;4991941;28;20467;-71
2023/02/05 13:10:49;;;;;;;2.35;1.25;;;;;;;;;;4992386;28;20018;-71
2023/02/05 13:13:22;;;;;;;1.60;0.80;;;;;;;;;;4992734;28;20093;-70
2023/02/05 13:15:51;;;;;;;3.03;0.80;;;;;;;;;;4997304;28;20030;-72
2023/02/05 13:18:21;;;;;;;1.90;0.85;;;;;;;;;;4991187;28;20066;-72
2023/02/05 13:29:31;;;;;;;1.20;0.95;;;;;;;;;;4992135;28;20041;-72
2023/02/05 13:32:10;;;;;;;4.93;1.33;;;;;;;;;;4991227;28;20026;-71
2023/02/05 13:34:36;;;;;;;4.13;1.17;;;;;;;;;;4991360;28;20148;-72
2023/02/05 13:37:14;;;;;;;1.92;1.20;;;;;;;;;;4990180;28;20062;-70
2023/02/05 13:39:49;;;;;;;1.65;0.98;;;;;;;;;;4992631;28;20032;-71
2023/02/05 13:42:31;;;;;;;3.20;1.08;;;;;;;;;;4992416;28;20488;-71
2023/02/05 13:44:57;;;;;;;3.08;1.13;;;;;;;;;;4992060;28;20022;-70
2023/02/05 13:47:26;;;;;;;2.97;1.50;;;;;;;;;;4991174;28;20041;-70
2023/02/05 13:49:52;;;;;;;2.67;1.48;;;;;;;;;;4992003;28;20023;-71
2023/02/05 13:52:24;;;;;;;3.13;1.20;;;;;;;;;;4990544;28;20421;-70
2023/02/05 13:54:59;;;;;;;4.10;1.52;;;;;;;;;;4991616;28;20030;-70
2023/02/05 13:57:28;;;;;;;4.25;1.23;;;;;;;;;;4989663;28;20073;-70
2023/02/05 13:59:55;;;;;;;3.88;1.48;;;;;;;;;;4991283;28;20030;-68
2023/02/05 14:02:34;;;;;;;3.88;1.63;;;;;;;;;;4990170;28;20041;-70
2023/02/05 14:05:01;;;;;;;3.90;1.70;;;;;;;;;;4991800;28;20092;-71
2023/02/05 14:07:29;;;;;;;3.50;1.60;;;;;;;;;;4989538;28;20042;-70
2023/02/05 14:09:59;;;;;;;3.05;1.42;;;;;;;;;;4990233;28;20023;-70
2023/02/05 14:12:36;;;;;;;2.13;1.45;;;;;;;;;;4990682;28;20377;-70
2023/02/05 14:15:18;;;;;;;2.47;1.23;;;;;;;;;;4990189;28;20034;-71
2023/02/05 14:17:44;;;;;;;2.53;1.30;;;;;;;;;;4990791;28;20133;-71
2023/02/05 14:20:25;;;;;;;5.07;1.65;;;;;;;;;;4989617;28;20441;-71
2023/02/05 14:22:51;;;;;;;;;;;;;;;;;;4989474;28;20100;-72
2023/02/05 14:25:40;;;;;;;3.40;1.45;;;;;;;;;;4989484;28;19906;-71
2023/02/05 14:28:15;;;;;;;3.75;1.70;;;;;;;;;;4991042;28;20145;-70
2023/02/05 14:30:51;;;;;;;3.22;1.63;;;;;;;;;;4990104;28;20031;-70
2023/02/05 14:33:34;;;;;;;5.05;2.30;;;;;;;;;;4991490;28;20501;-72
2023/02/05 14:36:15;;;;;;;8.63;1.63;;;;;;;;;;4981669;28;20072;-71
2023/02/05 14:38:44;;;;;;;5.68;2.10;;;;;;;;;;4989432;28;20034;-70
2023/02/05 14:41:13;;;;;;;2.88;1.48;;;;;;;;;;4990286;28;20229;-71
2023/02/05 14:43:45;;;;;;;2.30;1.50;;;;;;;;;;4991402;28;20500;-71
2023/02/05 14:46:31;;;;;;;5.00;1.52;;;;;;;;;;4990427;28;20030;-70
2023/02/05 14:48:59;;;;;;;4.30;2.08;;;;;;;;;;4989152;28;20019;-72
2023/02/05 14:51:41;;;;;;;2.58;1.48;;;;;;;;;;4991557;28;20058;-72
2023/02/05 14:54:18;;;;;;;3.90;1.75;;;;;;;;;;4991241;28;20027;-71
2023/02/05 14:56:47;;;;;;;3.88;1.88;;;;;;;;;;4991192;28;20110;-72
2023/02/05 14:59:19;;;;;;;3.40;1.95;;;;;;;;;;4989131;28;20436;-71
2023/02/05 15:01:48;;;;;;;3.00;1.42;;;;;;;;;;4982544;28;20077;-72
2023/02/05 15:04:37;;;;;;;3.00;1.48;;;;;;;;;;4991128;28;20027;-73
2023/02/05 15:07:09;;;;;;;4.32;2.00;;;;;;;;;;4988726;28;20023;-71
2023/02/05 15:09:43;;;;;;;6.72;2.08;;;;;;;;;;4991368;28;20041;-73
2023/02/05 15:12:28;;;;;;;3.17;1.50;;;;;;;;;;4990707;28;20026;-73